Time;durP1;ratioP1;P1;durP2;ratioP2;P2;SDS_P1;SDS_P2;PMS_P1;PMS_P2;Temp;Humidity;BMP_temperature;BMP_pressure;BME280_temperature;BME280_humidity;BME280_pressure;Samples;Min_cycle;Max_cycle;Signal;HPM_P1;HPM_P2
2022/05/27 00:01:33;;;;;;;14.32;6.20;;;19.10;99.90;;;;;;5021547;28;20029;-83
2022/05/27 00:04:02;;;;;;;15.52;6.38;;;19.00;99.90;;;;;;5042980;28;20078;-83
2022/05/27 00:06:29;;;;;;;13.30;6.40;;;19.00;99.90;;;;;;5036087;28;20069;-83
2022/05/27 00:08:56;;;;;;;10.57;6.22;;;18.90;99.90;;;;;;5038459;28;20021;-83
2022/05/27 00:11:22;;;;;;;16.08;6.55;;;19.00;99.90;;;;;;5025812;28;20030;-82
2022/05/27 00:13:49;;;;;;;9.07;6.00;;;19.00;99.90;;;;;;5041172;28;20022;-83
2022/05/27 00:16:15;;;;;;;11.75;5.88;;;18.90;99.90;;;;;;5041650;28;20022;-83
2022/05/27 00:18:41;;;;;;;12.27;5.80;;;18.90;99.90;;;;;;5041467;28;20025;-83
2022/05/27 00:21:07;;;;;;;9.43;5.68;;;18.90;99.90;;;;;;5042900;28;20029;-83
2022/05/27 00:23:34;;;;;;;11.18;6.43;;;19.00;99.90;;;;;;5043968;28;20025;-82
2022/05/27 00:26:00;;;;;;;13.63;6.38;;;18.90;99.90;;;;;;5030262;28;20061;-82
2022/05/27 00:28:26;;;;;;;10.77;6.68;;;19.00;99.90;;;;;;5037994;28;20549;-85
2022/05/27 00:30:54;;;;;;;11.95;6.45;;;19.00;99.90;;;;;;5036011;28;20039;-84
2022/05/27 00:33:20;;;;;;;12.95;6.68;;;18.90;99.90;;;;;;5039188;28;20030;-83
2022/05/27 00:35:46;;;;;;;13.05;6.22;;;18.90;99.90;;;;;;5041664;28;20376;-84
2022/05/27 00:38:12;;;;;;;13.93;5.93;;;18.80;99.90;;;;;;5023029;28;20028;-84
2022/05/27 00:40:42;;;;;;;17.20;6.90;;;18.80;99.90;;;;;;5041566;28;20025;-83
2022/05/27 00:43:08;;;;;;;11.68;6.47;;;18.90;99.90;;;;;;5041857;28;20029;-84
2022/05/27 00:45:37;;;;;;;11.77;6.13;;;18.80;99.90;;;;;;5038910;28;20049;-84
2022/05/27 00:48:06;;;;;;;18.20;6.68;;;18.90;99.90;;;;;;5036978;28;20033;-84
2022/05/27 00:50:40;;;;;;;9.88;6.15;;;18.80;99.90;;;;;;5039846;28;20557;-84
2022/05/27 00:53:08;;;;;;;10.98;5.82;;;18.80;99.90;;;;;;5022922;28;20083;-84
2022/05/27 00:55:41;;;;;;;10.82;6.40;;;18.80;99.90;;;;;;5046187;28;20025;-84
2022/05/27 00:58:17;;;;;;;12.50;5.90;;;18.70;99.90;;;;;;5040831;28;20051;-85
2022/05/27 01:00:43;;;;;;;15.48;5.72;;;18.70;99.90;;;;;;5031406;28;20059;-84
2022/05/27 01:03:13;;;;;;;16.00;6.65;;;18.70;99.90;;;;;;5040498;28;20025;-83
2022/05/27 01:05:44;;;;;;;18.30;6.43;;;18.60;99.90;;;;;;5041471;28;20044;-86
2022/05/27 01:08:12;;;;;;;13.13;5.82;;;18.70;99.90;;;;;;5038112;28;20643;-84
2022/05/27 01:11:13;;;;;;;14.90;6.43;;;18.70;99.90;;;;;;5020443;28;20029;-83
2022/05/27 01:14:03;;;;;;;9.73;6.32;;;18.80;99.90;;;;;;5017794;28;20029;-83
2022/05/27 01:17:04;;;;;;;8.60;5.38;;;18.80;99.90;;;;;;5037121;28;20928;-83
2022/05/27 01:23:08;;;;;;;9.85;5.90;;;18.70;99.90;;;;;;5039761;28;20024;-83
2022/05/27 01:26:11;;;;;;;12.02;5.80;;;18.70;99.90;;;;;;5038464;28;20041;-84
2022/05/27 01:28:37;;;;;;;19.00;5.13;;;18.70;99.90;;;;;;5041601;28;20017;-83
2022/05/27 01:31:22;;;;;;;10.90;5.90;;;18.70;99.90;;;;;;5018625;28;20036;-84
2022/05/27 01:34:00;;;;;;;10.55;6.45;;;18.70;99.90;;;;;;5017595;28;20033;-83
2022/05/27 01:36:47;;;;;;;7.75;5.70;;;18.70;99.90;;;;;;5020754;28;20361;-84
2022/05/27 01:39:35;;;;;;;8.50;5.63;;;18.70;99.90;;;;;;5042487;28;20484;-82
2022/05/27 01:42:12;;;;;;;10.18;5.82;;;18.80;99.90;;;;;;5039279;28;20396;-83
2022/05/27 01:44:50;;;;;;;6.43;5.65;;;18.80;99.90;;;;;;5022507;28;20498;-82
2022/05/27 01:47:36;;;;;;;10.70;5.53;;;18.80;99.90;;;;;;5035644;28;20038;-83
2022/05/27 01:50:22;;;;;;;15.88;5.80;;;18.80;99.90;;;;;;5039781;28;20136;-84
2022/05/27 01:53:02;;;;;;;12.18;5.95;;;18.90;99.90;;;;;;5027331;28;20021;-83
2022/05/27 01:55:37;;;;;;;10.85;5.63;;;19.00;99.90;;;;;;5041142;28;20029;-83
2022/05/27 01:58:09;;;;;;;7.25;5.25;;;19.00;99.90;;;;;;5041726;28;20021;-83
2022/05/27 02:00:37;;;;;;;11.48;5.55;;;18.90;99.90;;;;;;5042048;28;20040;-83
2022/05/27 02:03:23;;;;;;;9.57;5.55;;;18.90;99.90;;;;;;5024142;28;20154;-83
2022/05/27 02:06:04;;;;;;;11.82;5.22;;;18.90;99.90;;;;;;5035940;28;20022;-84
2022/05/27 02:08:54;;;;;;;11.23;5.22;;;18.90;99.90;;;;;;5041361;28;20025;-83
2022/05/27 02:11:22;;;;;;;11.88;5.80;;;18.90;99.90;;;;;;5024701;28;20024;-83
2022/05/27 02:14:05;;;;;;;10.00;5.53;;;18.90;99.90;;;;;;5040255;28;20033;-84
2022/05/27 02:16:55;;;;;;;8.40;4.70;;;18.90;99.90;;;;;;5037978;28;20108;-83
2022/05/27 02:19:50;;;;;;;12.65;5.25;;;18.90;99.90;;;;;;5040915;28;20021;-84
2022/05/27 02:22:29;;;;;;;7.40;4.88;;;19.00;99.90;;;;;;5044459;28;20027;-83
2022/05/27 02:25:05;;;;;;;9.55;5.22;;;19.00;99.90;;;;;;5042785;28;20108;-83
2022/05/27 02:27:35;;;;;;;9.40;5.30;;;19.00;99.90;;;;;;5038078;28;20044;-85
2022/05/27 02:30:06;;;;;;;7.47;5.38;;;19.00;99.90;;;;;;5038587;28;20021;-84
2022/05/27 02:32:37;;;;;;;7.93;5.40;;;18.90;99.90;;;;;;5020252;28;20036;-84
2022/05/27 02:35:23;;;;;;;9.40;5.30;;;18.90;99.90;;;;;;5021796;28;20047;-84
2022/05/27 02:37:55;;;;;;;12.90;5.80;;;18.90;99.90;;;;;;5026064;28;20021;-83
2022/05/27 02:40:40;;;;;;;13.82;4.80;;;18.90;99.90;;;;;;5024997;28;20029;-84
2022/05/27 02:43:08;;;;;;;13.18;5.45;;;18.90;99.90;;;;;;5015779;28;20125;-84
2022/05/27 02:45:59;;;;;;;9.43;5.15;;;18.90;99.90;;;;;;5023324;28;20028;-84
2022/05/27 02:48:51;;;;;;;7.53;5.22;;;18.90;99.90;;;;;;5038413;28;20022;-82
2022/05/27 02:51:31;;;;;;;8.05;5.10;;;19.00;99.90;;;;;;5036865;28;20064;-82
2022/05/27 02:54:19;;;;;;;14.07;5.50;;;19.10;99.90;;;;;;5023235;28;20036;-83
2022/05/27 02:57:04;;;;;;;15.05;5.00;;;19.10;99.90;;;;;;5039608;28;20068;-82
2022/05/27 02:59:31;;;;;;;7.65;4.75;;;19.20;99.90;;;;;;5036976;28;20029;-82
2022/05/27 03:02:08;;;;;;;7.53;4.65;;;19.20;99.90;;;;;;5041651;28;20024;-83
2022/05/27 03:04:34;;;;;;;7.13;4.70;;;19.30;99.90;;;;;;5019446;28;20017;-82
2022/05/27 03:07:00;;;;;;;7.70;4.18;;;19.30;99.90;;;;;;5037895;28;20123;-83
2022/05/27 03:10:10;;;;;;;7.63;4.68;;;19.30;99.90;;;;;;5044120;28;20022;-83
2022/05/27 03:13:13;;;;;;;12.90;5.15;;;19.30;99.90;;;;;;5042219;28;20067;-83
2022/05/27 03:15:57;;;;;;;;;;;19.30;99.90;;;;;;4976812;28;20166;-83
2022/05/27 03:18:59;;;;;;;13.52;5.05;;;19.30;99.90;;;;;;5039061;28;19936;-84
2022/05/27 03:21:42;;;;;;;7.70;4.22;;;19.40;99.90;;;;;;5026348;28;20219;-84
2022/05/27 03:24:21;;;;;;;11.32;5.00;;;19.40;99.90;;;;;;5021381;28;20388;-84
2022/05/27 03:27:24;;;;;;;9.45;5.07;;;19.50;99.90;;;;;;5037944;28;20029;-82
2022/05/27 03:30:00;;;;;;;9.48;4.90;;;19.50;99.90;;;;;;5015324;28;20112;-83
2022/05/27 03:32:29;;;;;;;13.60;5.47;;;19.50;99.90;;;;;;5044147;28;20375;-83
2022/05/27 03:35:32;;;;;;;9.88;4.80;;;19.50;99.90;;;;;;5021129;28;20049;-82
2022/05/27 03:38:19;;;;;;;8.27;4.72;;;19.40;99.90;;;;;;5033427;28;20067;-82
2022/05/27 03:40:53;;;;;;;9.38;4.78;;;19.50;99.90;;;;;;5044423;28;20920;-82
2022/05/27 03:43:20;;;;;;;9.30;5.15;;;19.40;99.90;;;;;;5042946;28;20028;-85
2022/05/27 03:45:58;;;;;;;8.30;5.03;;;19.50;99.90;;;;;;5016505;28;20021;-82
2022/05/27 03:48:26;;;;;;;7.20;4.88;;;19.50;99.90;;;;;;5038822;28;20104;-83
2022/05/27 03:50:56;;;;;;;7.93;4.38;;;19.50;99.90;;;;;;5040432;28;20049;-83
2022/05/27 03:54:03;;;;;;;10.07;4.90;;;19.50;99.90;;;;;;5020435;28;20468;-83
2022/05/27 03:56:10;;;;;;;11.82;5.10;;;19.50;99.90;;;;;;5040644;28;20045;-84
2022/05/27 03:58:37;;;;;;;12.75;5.47;;;19.60;99.90;;;;;;5043254;28;20052;-83
2022/05/27 04:01:02;;;;;;;9.32;5.32;;;19.70;99.90;;;;;;5021252;28;20026;-83
2022/05/27 04:03:28;;;;;;;15.68;4.85;;;19.70;99.90;;;;;;5043707;28;20013;-84
2022/05/27 04:05:54;;;;;;;7.82;4.47;;;19.80;99.90;;;;;;5040275;28;20029;-83
2022/05/27 04:08:20;;;;;;;8.00;4.13;;;20.00;99.90;;;;;;5044810;28;20118;-83
2022/05/27 04:10:45;;;;;;;6.85;4.80;;;20.10;99.90;;;;;;5042781;28;20029;-83
2022/05/27 04:13:11;;;;;;;10.73;5.00;;;20.10;99.90;;;;;;5028171;28;20044;-83
2022/05/27 04:15:37;;;;;;;8.75;4.57;;;20.20;99.90;;;;;;5042690;28;20022;-82
2022/05/27 04:18:03;;;;;;;6.75;3.78;;;20.20;99.90;;;;;;5041715;28;20029;-83
2022/05/27 04:20:28;;;;;;;6.97;4.07;;;20.30;99.90;;;;;;5042775;28;20084;-83
2022/05/27 04:22:54;;;;;;;12.60;5.03;;;20.30;99.90;;;;;;5041054;28;20484;-83
2022/05/27 04:25:21;;;;;;;7.75;4.28;;;20.40;99.90;;;;;;5027575;28;20140;-83
2022/05/27 04:27:47;;;;;;;13.57;4.30;;;20.40;99.90;;;;;;5041510;28;20032;-83
2022/05/27 04:30:13;;;;;;;9.30;4.20;;;20.40;99.90;;;;;;5036044;28;20056;-83
2022/05/27 04:32:39;;;;;;;7.75;4.78;;;20.40;99.90;;;;;;5029184;28;20029;-83
2022/05/27 04:35:09;;;;;;;8.05;4.47;;;20.40;99.90;;;;;;5037747;28;20037;-83
2022/05/27 04:37:36;;;;;;;8.63;4.40;;;20.50;99.90;;;;;;5043491;28;20120;-83
2022/05/27 04:40:04;;;;;;;10.02;4.13;;;20.50;99.90;;;;;;5041516;28;20021;-83
2022/05/27 04:42:29;;;;;;;10.75;5.07;;;20.50;99.90;;;;;;5022970;28;20029;-83
2022/05/27 04:44:55;;;;;;;16.33;5.10;;;20.60;99.90;;;;;;5044695;28;20491;-83
2022/05/27 04:47:22;;;;;;;9.15;5.00;;;20.70;99.90;;;;;;5038530;28;20033;-83
2022/05/27 04:49:51;;;;;;;8.05;4.45;;;20.80;99.90;;;;;;5027349;28;20460;-83
2022/05/27 04:52:17;;;;;;;10.45;5.18;;;20.80;99.90;;;;;;5046295;28;20025;-82
2022/05/27 04:54:43;;;;;;;11.88;5.53;;;20.90;99.90;;;;;;5040068;28;20102;-83
2022/05/27 04:57:15;;;;;;;14.18;5.40;;;21.00;99.90;;;;;;5038289;28;20063;-83
2022/05/27 04:59:41;;;;;;;10.90;4.78;;;21.00;99.90;;;;;;5042703;28;20032;-83
2022/05/27 05:02:07;;;;;;;14.88;4.90;;;21.10;99.90;;;;;;5042175;28;20013;-84
2022/05/27 05:04:33;;;;;;;6.53;4.30;;;21.10;99.90;;;;;;5044425;28;20029;-83
2022/05/27 05:07:04;;;;;;;10.15;5.03;;;21.30;99.90;;;;;;5034605;28;20180;-84
2022/05/27 05:09:30;;;;;;;10.65;4.97;;;21.40;99.90;;;;;;5042797;28;20017;-84
2022/05/27 05:11:56;;;;;;;9.57;5.05;;;21.60;99.90;;;;;;5022587;28;20033;-84
2022/05/27 05:14:22;;;;;;;13.52;5.70;;;21.70;99.90;;;;;;5040116;28;20025;-84
2022/05/27 05:16:51;;;;;;;9.88;4.78;;;21.90;99.90;;;;;;5034865;28;20040;-84
2022/05/27 05:19:17;;;;;;;14.05;5.43;;;22.00;99.90;;;;;;5044471;28;20025;-84
2022/05/27 05:21:43;;;;;;;8.15;4.97;;;22.20;99.90;;;;;;5029265;28;20123;-84
2022/05/27 05:24:09;;;;;;;12.50;5.03;;;22.40;99.90;;;;;;5038655;28;20465;-84
2022/05/27 05:26:34;;;;;;;10.68;5.03;;;22.50;99.90;;;;;;5036239;28;20052;-84
2022/05/27 05:29:00;;;;;;;8.93;4.80;;;22.60;99.90;;;;;;5042878;28;20039;-84
2022/05/27 05:31:26;;;;;;;9.98;4.72;;;22.80;99.90;;;;;;5027381;28;20037;-84
2022/05/27 05:33:51;;;;;;;11.18;4.20;;;22.80;99.90;;;;;;5040698;28;20096;-84
2022/05/27 05:36:17;;;;;;;11.43;4.47;;;22.80;99.90;;;;;;5041009;28;20032;-84
2022/05/27 05:38:43;;;;;;;10.68;4.82;;;22.80;99.90;;;;;;5043132;28;20369;-84
2022/05/27 05:41:09;;;;;;;15.38;4.78;;;23.00;99.90;;;;;;5022989;28;20022;-84
2022/05/27 05:43:34;;;;;;;11.80;4.57;;;23.00;99.90;;;;;;5033042;28;20025;-84
2022/05/27 05:46:00;;;;;;;15.05;5.22;;;23.00;99.90;;;;;;5024563;28;20168;-83
2022/05/27 05:48:26;;;;;;;11.10;4.32;;;23.10;99.90;;;;;;5036922;28;20483;-84
2022/05/27 05:50:52;;;;;;;11.50;4.03;;;23.10;99.90;;;;;;5041709;28;20036;-84
2022/05/27 05:53:21;;;;;;;10.35;4.78;;;23.10;99.90;;;;;;5036562;28;20017;-84
2022/05/27 05:55:46;;;;;;;10.88;3.95;;;23.10;99.90;;;;;;5017881;28;20025;-83
2022/05/27 05:58:12;;;;;;;12.90;4.32;;;23.00;99.90;;;;;;5023839;28;20025;-86
2022/05/27 06:00:38;;;;;;;11.18;4.25;;;23.00;99.90;;;;;;5021321;28;20032;-86
2022/05/27 06:03:04;;;;;;;10.32;4.75;;;22.90;99.90;;;;;;5039140;28;20104;-85
2022/05/27 06:05:29;;;;;;;13.15;4.35;;;23.00;99.90;;;;;;5033436;28;20096;-85
2022/05/27 06:07:56;;;;;;;9.27;4.18;;;23.00;99.90;;;;;;5038098;28;20040;-82
2022/05/27 06:10:22;;;;;;;10.65;4.18;;;23.20;99.90;;;;;;5034148;28;20052;-84
2022/05/27 06:12:48;;;;;;;12.45;4.45;;;23.50;99.90;;;;;;5039700;28;20023;-84
2022/05/27 06:15:15;;;;;;;10.60;3.70;;;23.90;99.90;;;;;;5040549;28;20029;-84
2022/05/27 06:17:41;;;;;;;14.63;4.90;;;24.20;99.90;;;;;;5041883;28;20480;-85
2022/05/27 06:20:07;;;;;;;14.70;4.40;;;24.50;99.90;;;;;;5039881;28;20109;-86
2022/05/27 06:22:33;;;;;;;19.90;5.13;;;24.70;99.90;;;;;;5027341;28;20116;-86
2022/05/27 06:25:00;;;;;;;12.30;4.55;;;24.90;99.90;;;;;;5021634;28;20110;-86
2022/05/27 06:27:26;;;;;;;14.75;4.50;;;24.90;99.90;;;;;;5023962;28;20044;-84
2022/05/27 06:35:21;;;;;;;45.90;8.98;;;24.60;99.90;;;;;;5038921;28;20169;-86
2022/05/27 06:37:46;;;;;;;53.33;9.15;;;24.20;99.90;;;;;;5037646;28;20119;-87
2022/05/27 06:40:13;;;;;;;41.00;8.68;;;23.90;99.90;;;;;;5037138;28;20430;-87
2022/05/27 06:42:39;;;;;;;25.98;8.18;;;23.50;99.90;;;;;;5034389;28;20025;-87
2022/05/27 06:45:10;;;;;;;30.00;7.53;;;23.20;99.90;;;;;;5022608;28;20032;-84
2022/05/27 06:47:36;;;;;;;25.00;7.93;;;22.90;99.90;;;;;;5035400;28;20091;-89
2022/05/27 06:50:02;;;;;;;27.05;7.20;;;22.80;99.90;;;;;;5039862;28;20052;-86
2022/05/27 06:52:28;;;;;;;29.00;7.90;;;22.70;99.90;;;;;;5035081;28;20030;-84
2022/05/27 06:54:56;;;;;;;26.88;7.65;;;22.60;99.90;;;;;;5027654;28;20029;-85
2022/05/27 06:57:22;;;;;;;27.55;8.30;;;22.80;99.90;;;;;;5032277;28;20025;-86
2022/05/27 06:59:48;;;;;;;19.13;7.22;;;22.80;99.90;;;;;;5013078;28;20037;-84
2022/05/27 07:02:14;;;;;;;16.60;7.00;;;23.00;99.90;;;;;;5024045;28;20061;-84
2022/05/27 07:04:39;;;;;;;22.20;6.80;;;23.10;99.90;;;;;;5037499;28;20499;-85
2022/05/27 07:07:06;;;;;;;16.65;6.88;;;23.20;99.90;;;;;;5036828;28;20084;-85
2022/05/27 07:09:35;;;;;;;21.92;6.90;;;23.30;99.90;;;;;;5017848;28;20036;-85
2022/05/27 07:12:04;;;;;;;20.58;7.00;;;23.50;99.90;;;;;;5034626;28;20366;-86
2022/05/27 07:14:29;;;;;;;18.05;6.88;;;23.60;99.90;;;;;;5033881;28;20024;-85
2022/05/27 07:16:55;;;;;;;14.55;6.28;;;23.80;99.90;;;;;;5034323;28;20025;-86
2022/05/27 07:19:21;;;;;;;23.05;7.18;;;23.80;99.90;;;;;;5040666;28;20017;-86
2022/05/27 07:21:48;;;;;;;23.23;6.95;;;23.80;99.90;;;;;;5015243;28;20025;-86
2022/05/27 07:24:16;;;;;;;29.65;7.50;;;23.80;99.90;;;;;;5039877;28;20531;-85
2022/05/27 07:26:43;;;;;;;28.38;7.25;;;23.70;99.90;;;;;;5026009;28;20480;-85
2022/05/27 07:29:10;;;;;;;13.80;6.47;;;23.60;99.90;;;;;;5025668;28;20028;-85
2022/05/27 07:31:37;;;;;;;16.02;6.45;;;23.60;99.90;;;;;;5019256;28;20026;-85
2022/05/27 07:34:04;;;;;;;20.35;6.20;;;23.70;99.90;;;;;;5044837;28;20603;-84
2022/05/27 07:36:30;;;;;;;17.60;6.78;;;23.90;99.90;;;;;;5030061;28;20112;-85
2022/05/27 07:38:56;;;;;;;17.67;6.22;;;24.10;99.90;;;;;;5026591;28;20620;-84
2022/05/27 07:41:23;;;;;;;20.35;6.30;;;24.40;99.90;;;;;;5044243;28;20013;-84
2022/05/27 07:43:50;;;;;;;10.00;5.88;;;24.60;99.90;;;;;;5041297;28;20030;-85
2022/05/27 07:46:17;;;;;;;16.27;6.20;;;24.80;99.90;;;;;;5044090;28;20029;-85
2022/05/27 07:48:43;;;;;;;23.08;6.72;;;24.90;99.90;;;;;;5041975;28;20036;-85
2022/05/27 07:51:10;;;;;;;28.27;7.20;;;24.80;99.90;;;;;;5044335;28;20045;-85
2022/05/27 07:53:38;;;;;;;32.92;7.65;;;24.70;99.90;;;;;;5030555;28;20028;-83
2022/05/27 07:56:07;;;;;;;29.17;7.28;;;24.40;99.90;;;;;;5026394;28;20051;-84
2022/05/27 07:58:33;;;;;;;20.75;6.63;;;24.30;99.90;;;;;;5046777;28;20021;-84
2022/05/27 08:00:59;;;;;;;14.68;6.43;;;24.40;99.90;;;;;;5039785;28;20388;-84
2022/05/27 08:03:25;;;;;;;21.30;5.80;;;24.40;99.90;;;;;;5015780;28;20033;-86
2022/05/27 08:05:51;;;;;;;16.38;6.38;;;24.20;99.90;;;;;;5043379;28;20058;-84
2022/05/27 08:08:20;;;;;;;20.40;6.20;;;24.10;99.90;;;;;;5044026;28;20029;-83
2022/05/27 08:10:46;;;;;;;17.60;5.85;;;24.20;99.90;;;;;;5044565;28;20029;-84
2022/05/27 08:13:12;;;;;;;14.02;5.75;;;24.20;99.90;;;;;;5023509;28;20391;-84
2022/05/27 08:15:38;;;;;;;15.70;6.00;;;24.20;99.90;;;;;;5042490;28;20498;-85
2022/05/27 08:18:04;;;;;;;16.40;5.97;;;24.30;99.90;;;;;;5024994;28;20365;-84
2022/05/27 08:20:36;;;;;;;13.82;5.65;;;24.30;99.90;;;;;;5044048;28;20013;-83
2022/05/27 08:23:05;;;;;;;17.83;6.00;;;24.40;99.90;;;;;;5024733;28;20118;-78
2022/05/27 08:25:31;;;;;;;12.18;5.70;;;24.30;99.90;;;;;;5039443;28;20479;-82
2022/05/27 08:27:57;;;;;;;13.25;5.85;;;24.40;99.90;;;;;;5028210;28;20033;-84
2022/05/27 08:30:29;;;;;;;15.02;5.50;;;24.50;99.90;;;;;;5042463;28;20017;-84
2022/05/27 08:32:55;;;;;;;16.73;6.38;;;24.50;99.90;;;;;;5044090;28;20021;-82
2022/05/27 08:38:10;;;;;;;18.30;5.70;;;24.40;99.90;;;;;;5038199;28;20075;-79
2022/05/27 08:40:55;;;;;;;21.60;6.55;;;24.40;99.90;;;;;;5041205;28;20036;-79
2022/05/27 08:43:40;;;;;;;11.60;5.07;;;24.40;99.90;;;;;;5022313;28;20032;-79
2022/05/27 08:46:41;;;;;;;16.77;5.93;;;24.30;99.90;;;;;;5034440;28;20492;-81
2022/05/27 08:49:14;;;;;;;14.32;5.90;;;24.30;99.90;;;;;;5034177;28;20025;-79
2022/05/27 08:52:14;;;;;;;17.17;6.53;;;24.40;99.90;;;;;;5043616;28;20500;-80
2022/05/27 08:54:54;;;;;;;18.02;5.95;;;24.30;99.90;;;;;;5033310;28;20029;-79
2022/05/27 09:00:14;;;;;;;14.43;5.60;;;24.70;99.90;;;;;;5039509;28;20448;-79
2022/05/27 09:02:58;;;;;;;19.55;6.18;;;24.70;99.90;;;;;;5020859;28;20033;-80
2022/05/27 09:05:27;;;;;;;11.35;5.70;;;24.60;99.90;;;;;;5033103;28;20191;-83
2022/05/27 09:08:10;;;;;;;20.67;6.43;;;24.60;99.90;;;;;;5036382;28;20032;-84
2022/05/27 09:11:07;;;;;;;14.52;6.43;;;24.50;99.90;;;;;;5042616;28;20420;-81
2022/05/27 09:13:39;;;;;;;15.63;6.50;;;24.50;99.90;;;;;;5005505;28;20033;-81
2022/05/27 09:16:31;;;;;;;12.38;5.93;;;24.40;99.90;;;;;;5036604;28;20022;-80
2022/05/27 09:19:18;;;;;;;16.98;5.95;;;24.60;99.90;;;;;;5037417;28;20037;-81
2022/05/27 09:21:52;;;;;;;11.05;5.60;;;24.70;99.90;;;;;;5035262;28;20013;-81
2022/05/27 09:24:39;;;;;;;15.27;5.97;;;24.60;99.90;;;;;;5024503;28;20425;-80
2022/05/27 09:27:11;;;;;;;11.23;5.53;;;24.40;99.90;;;;;;5037345;28;20072;-80
2022/05/27 09:29:39;;;;;;;12.47;5.60;;;24.30;99.90;;;;;;5042374;28;20490;-80
2022/05/27 09:32:20;;;;;;;16.75;6.10;;;24.30;99.90;;;;;;5019622;28;20079;-80
2022/05/27 09:34:47;;;;;;;18.10;6.70;;;24.30;99.90;;;;;;5041479;28;20022;-81
2022/05/27 09:37:31;;;;;;;14.48;5.88;;;24.40;99.90;;;;;;5020400;28;20506;-81
2022/05/27 09:40:04;;;;;;;13.18;6.00;;;24.20;99.90;;;;;;5023817;28;20028;-81
2022/05/27 09:42:31;;;;;;;;;;;24.40;99.90;;;;;;5044722;28;20021;-81
2022/05/27 09:45:01;;;;;;;14.38;5.80;;;24.50;99.90;;;;;;5023106;28;19905;-81
2022/05/27 09:47:36;;;;;;;15.75;5.65;;;24.60;99.90;;;;;;5035171;28;20038;-81
2022/05/27 09:50:09;;;;;;;16.88;5.60;;;24.50;99.90;;;;;;5041936;28;20407;-80
2022/05/27 09:52:40;;;;;;;10.25;5.45;;;24.70;99.90;;;;;;5033310;28;20045;-81
2022/05/27 09:55:31;;;;;;;14.75;6.20;;;24.90;99.90;;;;;;5028956;28;20117;-81
2022/05/27 09:58:00;;;;;;;11.57;5.60;;;25.10;99.90;;;;;;5035148;28;20383;-81
2022/05/27 10:00:39;;;;;;;14.88;5.80;;;25.20;99.90;;;;;;5039638;28;20061;-80
2022/05/27 10:03:25;;;;;;;12.70;5.80;;;25.20;99.90;;;;;;5021673;28;20021;-79
2022/05/27 10:05:54;;;;;;;15.55;5.28;;;25.20;99.90;;;;;;5044341;28;20089;-81
2022/05/27 10:08:34;;;;;;;10.77;5.18;;;25.30;99.90;;;;;;5039081;28;20087;-81
2022/05/27 10:11:10;;;;;;;9.90;5.38;;;25.20;99.90;;;;;;5015822;28;20029;-81
2022/05/27 10:13:37;;;;;;;14.43;6.00;;;25.30;99.90;;;;;;5031749;28;20391;-80
2022/05/27 10:16:11;;;;;;;12.70;5.45;;;25.30;99.90;;;;;;5025859;28;20029;-80
2022/05/27 10:18:39;;;;;;;12.57;5.90;;;25.30;99.90;;;;;;5033832;28;20112;-80
2022/05/27 10:21:13;;;;;;;19.00;5.88;;;25.10;99.90;;;;;;5036557;28;20067;-80
2022/05/27 10:23:42;;;;;;;10.15;5.85;;;25.00;99.90;;;;;;5008767;28;20021;-80
2022/05/27 10:26:30;;;;;;;8.27;5.97;;;25.10;99.90;;;;;;5044727;28;20517;-80
2022/05/27 10:29:06;;;;;;;10.05;5.40;;;25.00;99.90;;;;;;5036788;28;20036;-80
2022/05/27 10:31:33;;;;;;;18.33;5.95;;;25.20;99.90;;;;;;5023207;28;20017;-80
2022/05/27 10:34:00;;;;;;;10.02;5.95;;;25.20;99.90;;;;;;5024851;28;20087;-80
2022/05/27 10:36:53;;;;;;;13.05;5.55;;;25.20;99.90;;;;;;5022967;28;20086;-80
2022/05/27 10:39:37;;;;;;;15.32;6.65;;;25.30;99.90;;;;;;5024625;28;20029;-80
2022/05/27 10:42:17;;;;;;;13.23;5.88;;;25.30;99.90;;;;;;5046101;28;20112;-80
2022/05/27 10:44:53;;;;;;;10.63;5.93;;;25.30;99.90;;;;;;5040610;28;20032;-81
2022/05/27 10:48:04;;;;;;;13.27;5.60;;;25.30;99.90;;;;;;5037676;28;20033;-80
2022/05/27 10:50:33;;;;;;;11.52;6.30;;;25.40;99.90;;;;;;4977801;28;20040;-80
2022/05/27 10:53:02;;;;;;;13.48;6.28;;;25.40;99.90;;;;;;5037221;28;20116;-80
2022/05/27 10:55:58;;;;;;;15.05;5.93;;;25.50;99.90;;;;;;5040138;28;20637;-80
2022/05/27 11:04:24;;;;;;;8.90;5.45;;;25.30;99.90;;;;;;5045361;28;20021;-80
2022/05/27 11:07:05;;;;;;;10.52;5.82;;;25.20;99.90;;;;;;5033901;28;20041;-81
2022/05/27 11:09:43;;;;;;;7.55;5.55;;;25.20;99.90;;;;;;5037401;28;20037;-80
2022/05/27 11:12:21;;;;;;;12.02;5.07;;;25.20;99.90;;;;;;5037451;28;20056;-80
2022/05/27 11:15:13;;;;;;;13.65;5.32;;;25.40;99.90;;;;;;5041342;28;20021;-80
2022/05/27 11:17:47;;;;;;;9.57;4.70;;;25.60;99.90;;;;;;5036122;28;20124;-81
2022/05/27 11:20:51;;;;;;;5.68;3.75;;;25.70;99.90;;;;;;5038637;28;20029;-80
2022/05/27 11:23:47;;;;;;;13.35;4.85;;;25.70;99.90;;;;;;5019804;28;20503;-80
2022/05/27 11:26:50;;;;;;;10.73;4.90;;;25.90;99.90;;;;;;5017870;28;20167;-79
2022/05/27 11:29:28;;;;;;;9.57;5.38;;;26.00;99.90;;;;;;5039190;28;20028;-80
2022/05/27 11:32:17;;;;;;;13.93;5.88;;;26.10;99.90;;;;;;5039382;28;20033;-81
2022/05/27 11:35:08;;;;;;;9.95;5.78;;;26.20;99.90;;;;;;5045324;28;20422;-80
2022/05/27 11:38:01;;;;;;;11.30;6.28;;;26.10;99.90;;;;;;5037789;28;20048;-80
2022/05/27 11:40:54;;;;;;;9.25;6.15;;;26.10;99.90;;;;;;5038135;28;20029;-80
2022/05/27 11:43:46;;;;;;;;;;;26.00;99.90;;;;;;5042868;28;20040;-80
2022/05/27 11:46:33;;;;;;;12.27;6.53;;;26.00;99.90;;;;;;5034847;28;20278;-80
2022/05/27 11:49:30;;;;;;;10.73;6.05;;;25.90;99.90;;;;;;5022737;28;20032;-81
2022/05/27 11:52:01;;;;;;;13.65;6.88;;;25.80;99.90;;;;;;5044948;28;20106;-80
2022/05/27 11:55:01;;;;;;;13.35;6.70;;;25.70;99.90;;;;;;5010592;28;20021;-80
2022/05/27 11:57:46;;;;;;;15.57;6.93;;;25.70;99.90;;;;;;5037800;28;20025;-80
2022/05/27 12:00:18;;;;;;;8.68;5.40;;;26.10;99.90;;;;;;5035362;28;20026;-80
2022/05/27 12:02:49;;;;;;;11.45;6.10;;;28.60;99.90;;;;;;5043143;28;20084;-80
2022/05/27 12:05:19;;;;;;;13.68;5.72;;;30.40;99.90;;;;;;5020957;28;20037;-80
2022/05/27 12:08:07;;;;;;;10.50;6.05;;;31.00;99.90;;;;;;5018927;28;20113;-80
2022/05/27 12:11:05;;;;;;;11.63;6.43;;;31.60;99.90;;;;;;5030202;28;20029;-80
2022/05/27 12:13:46;;;;;;;15.63;5.82;;;31.90;99.90;;;;;;5015672;28;20365;-80
2022/05/27 12:16:18;;;;;;;13.30;5.32;;;32.10;99.90;;;;;;5045859;28;20018;-79
2022/05/27 12:19:11;;;;;;;15.98;5.95;;;32.90;99.90;;;;;;5041740;28;20056;-80
2022/05/27 12:21:51;;;;;;;11.55;4.93;;;33.50;99.90;;;;;;5046859;28;20057;-81
2022/05/27 12:24:26;;;;;;;12.77;4.95;;;34.80;99.90;;;;;;5023340;28;20032;-81
2022/05/27 12:26:55;;;;;;;10.25;5.00;;;34.80;99.90;;;;;;5037375;28;20033;-81
2022/05/27 12:29:22;;;;;;;15.23;4.75;;;34.70;99.90;;;;;;5044849;28;20523;-80
2022/05/27 12:31:49;;;;;;;11.75;4.85;;;34.60;99.90;;;;;;5037944;28;20032;-80
2022/05/27 12:34:27;;;;;;;7.80;3.72;;;34.80;99.90;;;;;;5044467;28;20017;-81
2022/05/27 12:37:00;;;;;;;12.32;4.78;;;35.00;99.90;;;;;;5046026;28;20087;-80
2022/05/27 12:39:30;;;;;;;8.40;4.10;;;36.00;99.90;;;;;;5046508;28;20365;-80
2022/05/27 12:42:10;;;;;;;12.35;4.80;;;36.20;99.90;;;;;;5042856;28;20075;-80
2022/05/27 12:44:40;;;;;;;13.65;4.82;;;36.70;99.90;;;;;;5023538;28;20026;-79
2022/05/27 12:47:33;;;;;;;8.07;4.80;;;36.70;99.90;;;;;;5022206;28;20045;-81
2022/05/27 12:50:13;;;;;;;16.80;6.32;;;36.50;99.90;;;;;;5024480;28;20035;-80
2022/05/27 12:52:52;;;;;;;11.93;5.35;;;37.30;99.90;;;;;;5043893;28;20028;-81
2022/05/27 13:00:55;;;;;;;13.30;5.57;;;37.90;99.90;;;;;;5040262;28;20025;-79
2022/05/27 13:01:30;;;;;;;17.73;5.60;;;36.80;99.90;;;;;;5037189;28;20032;-80
2022/05/27 13:03:59;;;;;;;12.70;6.95;;;36.10;99.90;;;;;;5045656;28;20017;-80
2022/05/27 13:06:25;;;;;;;13.80;7.25;;;36.40;99.90;;;;;;5042837;28;20480;-80
2022/05/27 13:08:50;;;;;;;17.95;7.22;;;35.70;99.90;;;;;;5038850;28;20033;-79
2022/05/27 13:11:22;;;;;;;10.43;6.18;;;35.60;99.90;;;;;;5044411;28;20036;-79
2022/05/27 13:13:51;;;;;;;21.42;6.13;;;36.20;99.90;;;;;;5046368;28;20029;-80
2022/05/27 13:16:40;;;;;;;14.35;6.80;;;36.30;99.90;;;;;;5043844;28;20021;-80
2022/05/27 13:19:09;;;;;;;14.40;5.25;;;36.80;99.70;;;;;;5043119;28;20021;-81
2022/05/27 13:21:44;;;;;;;11.30;5.55;;;37.50;99.20;;;;;;5042432;28;20028;-80
2022/05/27 13:24:13;;;;;;;12.45;6.85;;;38.70;98.20;;;;;;5040738;28;20498;-80
2022/05/27 13:26:44;;;;;;;18.45;7.07;;;37.60;99.20;;;;;;5046574;28;20111;-81
2022/05/27 13:29:25;;;;;;;14.30;6.63;;;37.30;99.30;;;;;;5040960;28;20492;-80
2022/05/27 13:32:13;;;;;;;16.45;6.93;;;37.00;99.50;;;;;;5042594;28;20036;-80
2022/05/27 13:34:48;;;;;;;19.85;9.68;;;36.30;99.80;;;;;;5042596;28;20021;-80
2022/05/27 13:37:35;;;;;;;15.35;8.30;;;35.30;99.90;;;;;;5039625;28;20059;-80
2022/05/27 13:40:21;;;;;;;15.88;8.75;;;35.10;99.90;;;;;;5044010;28;20044;-80